Terminal Aerodrome Forecast
Issued by NWS Corpus Christi, TX

Home | Current Version | Previous Version | Text Only | Print | Product List | Glossary On
Versions: 1 2 3 4 5 6 7 8 9 10 11 12 13 14 15 16 17 18 19 20 21 22 23 24 25 26
034
FTUS44 KCRP 281927 AAA
TAFCRP
TAF AMD
KCRP 281927Z 2819/2918 13017KT 6SM HZ SCT015 BKN035
      TEMPO 2819/2823 4SM HZ BKN026
     FM290200 13013KT 6SM BR OVC008
     FM291000 15015KT 5SM BR OVC015
     FM291400 15019G28KT P6SM SCT025 BKN035=

USA.gov is the U.S. government's official web portal to all federal, state and local government web resources and services.